Terminal Aerodrome Forecast
Issued by NWS Nashville, TN

Home | Current Version | Previous Version | Text Only | Print | Product List | Glossary On
Versions: 1 2 3 4 5 6 7 8 9 10 11 12 13 14 15 16 17
357
FTUS44 KOHX 281016 AAA
TAFBNA
TAF AMD
KBNA 281016Z 2810/2906 20005KT P6SM VCSH SCT015 OVC025
      TEMPO 2810/2813 3SM -SHRA BKN015 OVC025
     FM281300 21004KT 4SM -SHRA BR BKN007 OVC020
     FM281800 22008KT 3SM TSRA OVC015CB
     FM282300 24006KT P6SM OVC025=

USA.gov is the U.S. government's official web portal to all federal, state and local government web resources and services.